sensor_id;sensor_type;location;lat;lon;timestamp;pressure;altitude;pressure_sealevel;temperature;humidity
76726;BME280;65651;53.154;17.916;2022-12-29T00:01:02;100407.68;;;5.27;83.63
76726;BME280;65651;53.154;17.916;2022-12-29T00:03:29;100403.38;;;5.23;83.93
76726;BME280;65651;53.154;17.916;2022-12-29T00:05:57;100402.58;;;5.22;83.91
76726;BME280;65651;53.154;17.916;2022-12-29T00:08:25;100395.95;;;5.20;83.85
76726;BME280;65651;53.154;17.916;2022-12-29T00:11:13;100388.30;;;5.20;84.09
76726;BME280;65651;53.154;17.916;2022-12-29T00:13:41;100388.67;;;5.20;83.86
76726;BME280;65651;53.154;17.916;2022-12-29T00:16:28;100392.65;;;5.19;84.24
76726;BME280;65651;53.154;17.916;2022-12-29T00:18:56;100390.91;;;5.17;84.27
76726;BME280;65651;53.154;17.916;2022-12-29T00:21:24;100390.80;;;5.16;84.17
76726;BME280;65651;53.154;17.916;2022-12-29T00:24:19;100386.70;;;5.16;84.31
76726;BME280;65651;53.154;17.916;2022-12-29T00:27:12;100390.23;;;5.16;84.26
76726;BME280;65651;53.154;17.916;2022-12-29T00:29:58;100386.05;;;5.15;84.53
76726;BME280;65651;53.154;17.916;2022-12-29T00:32:44;100383.97;;;5.11;84.75
76726;BME280;65651;53.154;17.916;2022-12-29T00:35:38;100383.56;;;5.10;84.82
76726;BME280;65651;53.154;17.916;2022-12-29T00:38:09;100380.59;;;5.09;84.79
76726;BME280;65651;53.154;17.916;2022-12-29T00:40:56;100379.16;;;5.09;84.85
76726;BME280;65651;53.154;17.916;2022-12-29T00:43:42;100383.77;;;5.09;84.94
76726;BME280;65651;53.154;17.916;2022-12-29T00:46:28;100383.20;;;5.10;85.00
76726;BME280;65651;53.154;17.916;2022-12-29T00:48:57;100382.67;;;5.10;84.99
76726;BME280;65651;53.154;17.916;2022-12-29T00:51:43;100380.39;;;5.09;85.09
76726;BME280;65651;53.154;17.916;2022-12-29T00:54:11;100380.77;;;5.09;85.23
76726;BME280;65651;53.154;17.916;2022-12-29T00:56:42;100389.02;;;5.08;85.28
76726;BME280;65651;53.154;17.916;2022-12-29T00:59:10;100395.45;;;5.08;85.37
76726;BME280;65651;53.154;17.916;2022-12-29T01:01:38;100395.98;;;5.08;85.34
76726;BME280;65651;53.154;17.916;2022-12-29T01:04:07;100393.48;;;5.08;85.41
76726;BME280;65651;53.154;17.916;2022-12-29T01:06:37;100389.72;;;5.08;85.26
76726;BME280;65651;53.154;17.916;2022-12-29T01:09:06;100394.17;;;5.11;85.31
76726;BME280;65651;53.154;17.916;2022-12-29T01:11:52;100399.71;;;5.12;85.30
76726;BME280;65651;53.154;17.916;2022-12-29T01:14:20;100399.61;;;5.14;85.36
76726;BME280;65651;53.154;17.916;2022-12-29T01:16:48;100392.32;;;5.14;85.20
76726;BME280;65651;53.154;17.916;2022-12-29T01:19:18;100378.98;;;5.13;85.28
76726;BME280;65651;53.154;17.916;2022-12-29T01:21:49;100374.87;;;5.14;85.29
76726;BME280;65651;53.154;17.916;2022-12-29T01:24:18;100377.48;;;5.15;85.40
76726;BME280;65651;53.154;17.916;2022-12-29T01:26:47;100374.27;;;5.15;85.34
76726;BME280;65651;53.154;17.916;2022-12-29T01:29:17;100376.05;;;5.15;85.36
76726;BME280;65651;53.154;17.916;2022-12-29T01:31:46;100371.42;;;5.15;85.20
76726;BME280;65651;53.154;17.916;2022-12-29T01:34:13;100375.64;;;5.16;85.19
76726;BME280;65651;53.154;17.916;2022-12-29T01:36:41;100369.45;;;5.16;85.31
76726;BME280;65651;53.154;17.916;2022-12-29T01:39:09;100357.40;;;5.12;85.26
76726;BME280;65651;53.154;17.916;2022-12-29T01:41:36;100359.04;;;5.12;85.27
76726;BME280;65651;53.154;17.916;2022-12-29T01:47:10;100352.35;;;5.08;85.32
76726;BME280;65651;53.154;17.916;2022-12-29T01:49:38;100348.17;;;5.10;85.24
76726;BME280;65651;53.154;17.916;2022-12-29T01:52:07;100347.46;;;5.10;85.21
76726;BME280;65651;53.154;17.916;2022-12-29T01:54:44;100340.88;;;5.10;85.16
76726;BME280;65651;53.154;17.916;2022-12-29T01:57:29;100336.66;;;5.14;85.23
76726;BME280;65651;53.154;17.916;2022-12-29T02:00:10;100325.95;;;5.14;85.24
76726;BME280;65651;53.154;17.916;2022-12-29T02:02:54;100312.73;;;5.15;85.33
76726;BME280;65651;53.154;17.916;2022-12-29T02:05:40;100314.13;;;5.15;85.23
76726;BME280;65651;53.154;17.916;2022-12-29T02:08:13;100306.48;;;5.18;85.18
76726;BME280;65651;53.154;17.916;2022-12-29T02:10:41;100301.64;;;5.20;85.34
76726;BME280;65651;53.154;17.916;2022-12-29T02:13:09;100301.70;;;5.22;85.13
76726;BME280;65651;53.154;17.916;2022-12-29T02:21:19;100287.14;;;5.24;85.07
76726;BME280;65651;53.154;17.916;2022-12-29T02:32:21;100261.27;;;5.27;85.01
76726;BME280;65651;53.154;17.916;2022-12-29T02:35:37;100257.17;;;5.31;84.94
76726;BME280;65651;53.154;17.916;2022-12-29T02:40:53;100255.46;;;5.35;84.76
76726;BME280;65651;53.154;17.916;2022-12-29T02:43:31;100244.24;;;5.35;84.70
76726;BME280;65651;53.154;17.916;2022-12-29T02:46:28;100241.84;;;5.36;84.86
76726;BME280;65651;53.154;17.916;2022-12-29T02:51:57;100234.69;;;5.38;84.67
76726;BME280;65651;53.154;17.916;2022-12-29T02:54:24;100232.22;;;5.38;84.84
76726;BME280;65651;53.154;17.916;2022-12-29T02:57:15;100230.80;;;5.41;84.54
76726;BME280;65651;53.154;17.916;2022-12-29T02:59:59;100237.22;;;5.40;84.61
76726;BME280;65651;53.154;17.916;2022-12-29T03:02:47;100229.39;;;5.41;84.51
76726;BME280;65651;53.154;17.916;2022-12-29T03:08:37;100229.36;;;5.43;84.51
76726;BME280;65651;53.154;17.916;2022-12-29T03:11:11;100225.46;;;5.43;84.56
76726;BME280;65651;53.154;17.916;2022-12-29T03:16:58;100225.71;;;5.44;84.57
76726;BME280;65651;53.154;17.916;2022-12-29T03:19:32;100224.39;;;5.43;84.43
76726;BME280;65651;53.154;17.916;2022-12-29T03:22:09;100223.90;;;5.43;84.24
76726;BME280;65651;53.154;17.916;2022-12-29T03:25:37;100214.12;;;5.42;84.43
76726;BME280;65651;53.154;17.916;2022-12-29T03:28:09;100213.36;;;5.43;84.27
76726;BME280;65651;53.154;17.916;2022-12-29T03:30:43;100215.81;;;5.43;84.41
76726;BME280;65651;53.154;17.916;2022-12-29T03:33:20;100215.19;;;5.47;84.39
76726;BME280;65651;53.154;17.916;2022-12-29T03:35:51;100214.09;;;5.49;84.32
76726;BME280;65651;53.154;17.916;2022-12-29T03:38:35;100219.66;;;5.51;84.21
76726;BME280;65651;53.154;17.916;2022-12-29T03:41:08;100216.77;;;5.51;84.54
76726;BME280;65651;53.154;17.916;2022-12-29T03:43:38;100216.23;;;5.51;84.46
76726;BME280;65651;53.154;17.916;2022-12-29T03:46:05;100218.98;;;5.50;84.48
76726;BME280;65651;53.154;17.916;2022-12-29T03:48:34;100216.73;;;5.50;84.43
76726;BME280;65651;53.154;17.916;2022-12-29T03:51:01;100216.73;;;5.50;84.70
76726;BME280;65651;53.154;17.916;2022-12-29T03:53:29;100217.09;;;5.50;84.54
76726;BME280;65651;53.154;17.916;2022-12-29T03:55:56;100218.72;;;5.49;84.63
76726;BME280;65651;53.154;17.916;2022-12-29T03:58:24;100214.98;;;5.47;84.50
76726;BME280;65651;53.154;17.916;2022-12-29T04:01:00;100211.24;;;5.47;84.57
76726;BME280;65651;53.154;17.916;2022-12-29T04:03:28;100206.17;;;5.46;84.52
76726;BME280;65651;53.154;17.916;2022-12-29T04:05:56;100200.05;;;5.47;84.56
76726;BME280;65651;53.154;17.916;2022-12-29T04:08:24;100200.45;;;5.46;84.39
76726;BME280;65651;53.154;17.916;2022-12-29T04:10:51;100197.71;;;5.47;84.52
76726;BME280;65651;53.154;17.916;2022-12-29T04:13:20;100197.47;;;5.48;84.56
76726;BME280;65651;53.154;17.916;2022-12-29T04:15:47;100193.34;;;5.48;84.57
76726;BME280;65651;53.154;17.916;2022-12-29T04:18:15;100192.78;;;5.49;84.59
76726;BME280;65651;53.154;17.916;2022-12-29T04:20:44;100187.83;;;5.48;84.47
76726;BME280;65651;53.154;17.916;2022-12-29T04:23:29;100183.70;;;5.49;84.59
76726;BME280;65651;53.154;17.916;2022-12-29T04:25:58;100181.48;;;5.50;84.59
76726;BME280;65651;53.154;17.916;2022-12-29T04:28:26;100180.39;;;5.50;84.24
76726;BME280;65651;53.154;17.916;2022-12-29T04:31:04;100180.73;;;5.50;84.48
76726;BME280;65651;53.154;17.916;2022-12-29T04:33:37;100179.66;;;5.50;84.36
76726;BME280;65651;53.154;17.916;2022-12-29T04:36:05;100174.94;;;5.51;84.36
76726;BME280;65651;53.154;17.916;2022-12-29T04:38:33;100173.64;;;5.52;84.35
76726;BME280;65651;53.154;17.916;2022-12-29T04:41:04;100178.22;;;5.52;84.56
76726;BME280;65651;53.154;17.916;2022-12-29T04:43:32;100175.38;;;5.52;84.46
76726;BME280;65651;53.154;17.916;2022-12-29T04:46:22;100175.69;;;5.53;84.31
76726;BME280;65651;53.154;17.916;2022-12-29T04:49:02;100174.17;;;5.54;84.40
76726;BME280;65651;53.154;17.916;2022-12-29T04:52:08;100169.83;;;5.55;84.26
76726;BME280;65651;53.154;17.916;2022-12-29T04:54:35;100169.66;;;5.57;84.31
76726;BME280;65651;53.154;17.916;2022-12-29T04:57:09;100163.35;;;5.58;84.36
76726;BME280;65651;53.154;17.916;2022-12-29T04:59:39;100169.83;;;5.59;84.34
76726;BME280;65651;53.154;17.916;2022-12-29T05:02:07;100172.52;;;5.61;84.45
76726;BME280;65651;53.154;17.916;2022-12-29T05:04:36;100172.34;;;5.63;84.54
76726;BME280;65651;53.154;17.916;2022-12-29T05:07:03;100172.46;;;5.64;84.19
76726;BME280;65651;53.154;17.916;2022-12-29T05:09:31;100174.89;;;5.65;84.35
76726;BME280;65651;53.154;17.916;2022-12-29T05:12:00;100169.52;;;5.65;84.28
76726;BME280;65651;53.154;17.916;2022-12-29T05:14:28;100174.95;;;5.66;84.22
76726;BME280;65651;53.154;17.916;2022-12-29T05:16:58;100169.11;;;5.68;84.29
76726;BME280;65651;53.154;17.916;2022-12-29T05:19:28;100169.17;;;5.70;84.19
76726;BME280;65651;53.154;17.916;2022-12-29T05:21:56;100160.34;;;5.71;84.08
76726;BME280;65651;53.154;17.916;2022-12-29T05:24:23;100147.71;;;5.73;83.95
76726;BME280;65651;53.154;17.916;2022-12-29T05:26:53;100144.23;;;5.74;84.10
76726;BME280;65651;53.154;17.916;2022-12-29T05:29:39;100141.94;;;5.76;84.14
76726;BME280;65651;53.154;17.916;2022-12-29T05:32:09;100139.52;;;5.77;84.11
76726;BME280;65651;53.154;17.916;2022-12-29T05:34:36;100141.06;;;5.78;84.22
76726;BME280;65651;53.154;17.916;2022-12-29T05:37:04;100132.52;;;5.80;84.03
76726;BME280;65651;53.154;17.916;2022-12-29T05:39:31;100129.68;;;5.80;83.97
76726;BME280;65651;53.154;17.916;2022-12-29T05:42:01;100124.09;;;5.83;83.98
76726;BME280;65651;53.154;17.916;2022-12-29T05:44:47;100117.73;;;5.84;83.91
76726;BME280;65651;53.154;17.916;2022-12-29T05:47:35;100120.23;;;5.86;83.90
76726;BME280;65651;53.154;17.916;2022-12-29T05:50:21;100117.63;;;5.88;83.76
76726;BME280;65651;53.154;17.916;2022-12-29T05:53:21;100108.73;;;5.89;83.74
76726;BME280;65651;53.154;17.916;2022-12-29T05:55:49;100110.95;;;5.91;83.64
76726;BME280;65651;53.154;17.916;2022-12-29T05:58:17;100102.68;;;5.92;83.63
76726;BME280;65651;53.154;17.916;2022-12-29T06:00:45;100103.89;;;5.92;83.78
76726;BME280;65651;53.154;17.916;2022-12-29T06:03:13;100111.17;;;5.95;83.62
76726;BME280;65651;53.154;17.916;2022-12-29T06:05:44;100108.70;;;5.97;83.38
76726;BME280;65651;53.154;17.916;2022-12-29T06:08:13;100108.86;;;5.99;83.42
76726;BME280;65651;53.154;17.916;2022-12-29T06:10:40;100111.89;;;6.01;83.37
76726;BME280;65651;53.154;17.916;2022-12-29T06:13:09;100126.89;;;6.03;83.67
76726;BME280;65651;53.154;17.916;2022-12-29T06:15:40;100130.15;;;6.05;82.97
76726;BME280;65651;53.154;17.916;2022-12-29T06:18:08;100122.95;;;6.07;83.25
76726;BME280;65651;53.154;17.916;2022-12-29T06:20:36;100119.16;;;6.08;83.03
76726;BME280;65651;53.154;17.916;2022-12-29T06:23:05;100120.52;;;6.09;83.00
76726;BME280;65651;53.154;17.916;2022-12-29T06:25:33;100112.52;;;6.10;82.54
76726;BME280;65651;53.154;17.916;2022-12-29T06:28:03;100111.61;;;6.13;83.01
76726;BME280;65651;53.154;17.916;2022-12-29T06:30:32;100104.58;;;6.14;82.85
76726;BME280;65651;53.154;17.916;2022-12-29T06:33:01;100106.50;;;6.12;83.02
76726;BME280;65651;53.154;17.916;2022-12-29T06:35:29;100107.09;;;6.13;82.56
76726;BME280;65651;53.154;17.916;2022-12-29T06:37:56;100115.52;;;6.15;82.45
76726;BME280;65651;53.154;17.916;2022-12-29T06:40:23;100117.61;;;6.16;82.54
76726;BME280;65651;53.154;17.916;2022-12-29T06:43:10;100121.27;;;6.17;82.37
76726;BME280;65651;53.154;17.916;2022-12-29T06:45:56;100119.19;;;6.18;82.13
76726;BME280;65651;53.154;17.916;2022-12-29T06:48:24;100127.40;;;6.20;82.08
76726;BME280;65651;53.154;17.916;2022-12-29T06:50:51;100129.13;;;6.21;82.05
76726;BME280;65651;53.154;17.916;2022-12-29T06:53:18;100130.80;;;6.22;82.10
76726;BME280;65651;53.154;17.916;2022-12-29T06:55:48;100129.70;;;6.23;82.00
76726;BME280;65651;53.154;17.916;2022-12-29T06:58:16;100125.02;;;6.23;81.78
76726;BME280;65651;53.154;17.916;2022-12-29T07:00:44;100119.14;;;6.23;81.96
76726;BME280;65651;53.154;17.916;2022-12-29T07:03:12;100119.77;;;6.24;81.95
76726;BME280;65651;53.154;17.916;2022-12-29T07:05:39;100117.84;;;6.26;81.75
76726;BME280;65651;53.154;17.916;2022-12-29T07:08:07;100122.39;;;6.27;81.50
76726;BME280;65651;53.154;17.916;2022-12-29T07:10:34;100125.28;;;6.28;81.25
76726;BME280;65651;53.154;17.916;2022-12-29T07:13:01;100130.75;;;6.29;81.25
76726;BME280;65651;53.154;17.916;2022-12-29T07:15:29;100134.96;;;6.32;81.47
76726;BME280;65651;53.154;17.916;2022-12-29T07:17:56;100134.66;;;6.33;81.46
76726;BME280;65651;53.154;17.916;2022-12-29T07:20:24;100127.38;;;6.33;81.34
76726;BME280;65651;53.154;17.916;2022-12-29T07:22:51;100129.55;;;6.33;80.97
76726;BME280;65651;53.154;17.916;2022-12-29T07:25:19;100133.80;;;6.35;80.85
76726;BME280;65651;53.154;17.916;2022-12-29T07:27:46;100136.48;;;6.37;81.22
76726;BME280;65651;53.154;17.916;2022-12-29T07:30:14;100137.10;;;6.40;80.91
76726;BME280;65651;53.154;17.916;2022-12-29T07:32:41;100134.06;;;6.44;80.83
76726;BME280;65651;53.154;17.916;2022-12-29T07:35:11;100131.40;;;6.48;80.82
76726;BME280;65651;53.154;17.916;2022-12-29T07:37:38;100121.52;;;6.52;80.98
76726;BME280;65651;53.154;17.916;2022-12-29T07:40:06;100127.45;;;6.57;80.70
76726;BME280;65651;53.154;17.916;2022-12-29T07:42:34;100127.28;;;6.59;80.71
76726;BME280;65651;53.154;17.916;2022-12-29T07:45:02;100121.98;;;6.62;80.36
76726;BME280;65651;53.154;17.916;2022-12-29T07:47:49;100113.63;;;6.64;80.29
76726;BME280;65651;53.154;17.916;2022-12-29T07:50:16;100113.50;;;6.63;80.36
76726;BME280;65651;53.154;17.916;2022-12-29T07:52:44;100110.27;;;6.61;80.49
76726;BME280;65651;53.154;17.916;2022-12-29T07:55:12;100110.36;;;6.61;80.42
76726;BME280;65651;53.154;17.916;2022-12-29T07:57:39;100102.33;;;6.59;80.52
76726;BME280;65651;53.154;17.916;2022-12-29T08:00:08;100101.83;;;6.58;80.49
76726;BME280;65651;53.154;17.916;2022-12-29T08:02:41;100099.14;;;6.58;80.06
76726;BME280;65651;53.154;17.916;2022-12-29T08:05:09;100103.23;;;6.61;80.26
76726;BME280;65651;53.154;17.916;2022-12-29T08:07:36;100104.33;;;6.62;80.01
76726;BME280;65651;53.154;17.916;2022-12-29T08:10:04;100120.61;;;6.66;80.19
76726;BME280;65651;53.154;17.916;2022-12-29T08:12:31;100125.48;;;6.69;80.08
76726;BME280;65651;53.154;17.916;2022-12-29T08:15:01;100117.54;;;6.72;80.39
76726;BME280;65651;53.154;17.916;2022-12-29T08:17:28;100115.96;;;6.78;80.63
76726;BME280;65651;53.154;17.916;2022-12-29T08:19:55;100117.48;;;6.83;80.21
76726;BME280;65651;53.154;17.916;2022-12-29T08:22:23;100115.36;;;6.87;80.26
76726;BME280;65651;53.154;17.916;2022-12-29T08:24:52;100108.94;;;6.93;80.08
76726;BME280;65651;53.154;17.916;2022-12-29T08:27:20;100109.88;;;7.05;79.99
76726;BME280;65651;53.154;17.916;2022-12-29T08:29:47;100114.70;;;7.15;79.97
76726;BME280;65651;53.154;17.916;2022-12-29T08:32:15;100117.55;;;7.19;79.79
76726;BME280;65651;53.154;17.916;2022-12-29T08:34:45;100127.70;;;7.21;79.84
76726;BME280;65651;53.154;17.916;2022-12-29T08:37:13;100124.98;;;7.20;79.50
76726;BME280;65651;53.154;17.916;2022-12-29T08:39:40;100124.90;;;7.22;79.40
76726;BME280;65651;53.154;17.916;2022-12-29T08:42:07;100126.86;;;7.26;79.35
76726;BME280;65651;53.154;17.916;2022-12-29T08:44:35;100136.41;;;7.27;79.06
76726;BME280;65651;53.154;17.916;2022-12-29T08:47:03;100146.67;;;7.26;78.95
76726;BME280;65651;53.154;17.916;2022-12-29T08:49:30;100144.95;;;7.26;79.08
76726;BME280;65651;53.154;17.916;2022-12-29T08:51:58;100140.58;;;7.27;79.21
76726;BME280;65651;53.154;17.916;2022-12-29T08:54:25;100137.17;;;7.29;78.85
76726;BME280;65651;53.154;17.916;2022-12-29T08:56:52;100136.63;;;7.31;79.14
76726;BME280;65651;53.154;17.916;2022-12-29T08:59:26;100130.66;;;7.30;79.00
76726;BME280;65651;53.154;17.916;2022-12-29T09:01:53;100125.58;;;7.29;78.79
76726;BME280;65651;53.154;17.916;2022-12-29T09:04:22;100118.16;;;7.32;78.64
76726;BME280;65651;53.154;17.916;2022-12-29T09:06:50;100118.11;;;7.36;78.91
76726;BME280;65651;53.154;17.916;2022-12-29T09:09:18;100118.29;;;7.41;78.81
76726;BME280;65651;53.154;17.916;2022-12-29T09:11:46;100112.90;;;7.41;78.25
76726;BME280;65651;53.154;17.916;2022-12-29T09:14:13;100116.95;;;7.44;78.80
76726;BME280;65651;53.154;17.916;2022-12-29T09:16:41;100114.87;;;7.45;78.19
76726;BME280;65651;53.154;17.916;2022-12-29T09:19:27;100126.52;;;7.46;78.22
76726;BME280;65651;53.154;17.916;2022-12-29T09:21:55;100127.42;;;7.46;78.14
76726;BME280;65651;53.154;17.916;2022-12-29T09:24:23;100127.42;;;7.46;78.36
76726;BME280;65651;53.154;17.916;2022-12-29T09:26:50;100116.33;;;7.46;78.29
76726;BME280;65651;53.154;17.916;2022-12-29T09:29:18;100117.14;;;7.47;78.08
76726;BME280;65651;53.154;17.916;2022-12-29T09:31:45;100118.40;;;7.49;78.33
76726;BME280;65651;53.154;17.916;2022-12-29T09:34:13;100117.95;;;7.50;78.09
76726;BME280;65651;53.154;17.916;2022-12-29T09:36:40;100115.41;;;7.52;78.27
76726;BME280;65651;53.154;17.916;2022-12-29T09:39:08;100112.44;;;7.53;78.17
76726;BME280;65651;53.154;17.916;2022-12-29T09:41:57;100110.11;;;7.56;77.75
76726;BME280;65651;53.154;17.916;2022-12-29T09:44:46;100103.58;;;7.61;77.51
76726;BME280;65651;53.154;17.916;2022-12-29T09:47:16;100097.71;;;7.66;77.40
76726;BME280;65651;53.154;17.916;2022-12-29T09:52:23;100094.80;;;7.75;77.12
76726;BME280;65651;53.154;17.916;2022-12-29T09:55:23;100092.79;;;7.81;76.97
76726;BME280;65651;53.154;17.916;2022-12-29T09:57:56;100094.02;;;7.87;77.02
76726;BME280;65651;53.154;17.916;2022-12-29T10:00:54;100095.77;;;7.94;77.25
76726;BME280;65651;53.154;17.916;2022-12-29T10:03:35;100097.88;;;7.96;76.73
76726;BME280;65651;53.154;17.916;2022-12-29T10:06:30;100105.25;;;7.97;76.62
76726;BME280;65651;53.154;17.916;2022-12-29T10:32:06;100079.98;;;8.64;75.80
76726;BME280;65651;53.154;17.916;2022-12-29T10:34:44;100074.98;;;8.61;75.43
76726;BME280;65651;53.154;17.916;2022-12-29T10:42:56;100065.08;;;8.39;75.35
76726;BME280;65651;53.154;17.916;2022-12-29T10:45:29;100070.98;;;8.35;75.38
76726;BME280;65651;53.154;17.916;2022-12-29T10:50:34;100069.40;;;8.25;75.51
76726;BME280;65651;53.154;17.916;2022-12-29T10:53:04;100061.30;;;8.25;75.49
76726;BME280;65651;53.154;17.916;2022-12-29T10:55:35;100053.21;;;8.29;75.48
76726;BME280;65651;53.154;17.916;2022-12-29T10:58:07;100055.09;;;8.32;75.52
76726;BME280;65651;53.154;17.916;2022-12-29T11:00:39;100050.72;;;8.33;75.49
76726;BME280;65651;53.154;17.916;2022-12-29T11:06:05;100055.01;;;8.33;75.56
76726;BME280;65651;53.154;17.916;2022-12-29T11:08:38;100065.27;;;8.31;75.67
76726;BME280;65651;53.154;17.916;2022-12-29T11:11:09;100062.98;;;8.28;75.44
76726;BME280;65651;53.154;17.916;2022-12-29T11:16:41;100053.41;;;8.39;75.35
76726;BME280;65651;53.154;17.916;2022-12-29T11:19:22;100047.17;;;8.41;75.40
76726;BME280;65651;53.154;17.916;2022-12-29T11:21:51;100044.77;;;8.45;75.12
76726;BME280;65651;53.154;17.916;2022-12-29T11:26:52;100033.38;;;8.52;75.05
76726;BME280;65651;53.154;17.916;2022-12-29T11:29:28;100033.70;;;8.58;74.78
76726;BME280;65651;53.154;17.916;2022-12-29T11:31:58;100032.23;;;8.62;75.05
76726;BME280;65651;53.154;17.916;2022-12-29T11:34:34;100027.16;;;8.69;74.79
76726;BME280;65651;53.154;17.916;2022-12-29T11:37:20;100020.13;;;8.86;74.65
76726;BME280;65651;53.154;17.916;2022-12-29T11:40:00;100015.94;;;8.98;74.48
76726;BME280;65651;53.154;17.916;2022-12-29T11:42:47;100007.86;;;9.00;74.53
76726;BME280;65651;53.154;17.916;2022-12-29T11:45:19;100004.98;;;9.00;74.23
76726;BME280;65651;53.154;17.916;2022-12-29T11:47:59;100004.98;;;9.01;74.22
76726;BME280;65651;53.154;17.916;2022-12-29T11:50:31;100005.71;;;9.05;74.25
76726;BME280;65651;53.154;17.916;2022-12-29T11:55:30;100002.45;;;9.14;73.68
76726;BME280;65651;53.154;17.916;2022-12-29T11:58:01;99999.96;;;9.18;73.51
76726;BME280;65651;53.154;17.916;2022-12-29T12:00:32;99999.41;;;9.22;73.55
76726;BME280;65651;53.154;17.916;2022-12-29T12:03:04;99991.23;;;9.24;73.29
76726;BME280;65651;53.154;17.916;2022-12-29T12:05:46;99990.20;;;9.26;73.46
76726;BME280;65651;53.154;17.916;2022-12-29T12:08:31;99983.41;;;9.27;73.39
76726;BME280;65651;53.154;17.916;2022-12-29T12:14:17;99980.54;;;9.36;73.11
76726;BME280;65651;53.154;17.916;2022-12-29T12:17:18;99987.84;;;9.40;72.86
76726;BME280;65651;53.154;17.916;2022-12-29T12:19:56;99985.67;;;9.42;72.52
76726;BME280;65651;53.154;17.916;2022-12-29T12:22:38;99984.55;;;9.47;72.60
76726;BME280;65651;53.154;17.916;2022-12-29T12:25:19;99988.31;;;9.48;72.59
76726;BME280;65651;53.154;17.916;2022-12-29T12:27:57;99996.60;;;9.49;72.74
76726;BME280;65651;53.154;17.916;2022-12-29T12:30:31;100000.29;;;9.50;72.91
76726;BME280;65651;53.154;17.916;2022-12-29T12:33:06;99996.02;;;9.50;72.85
76726;BME280;65651;53.154;17.916;2022-12-29T12:35:52;100004.77;;;9.52;72.73
76726;BME280;65651;53.154;17.916;2022-12-29T12:41:31;100001.26;;;9.53;72.78
76726;BME280;65651;53.154;17.916;2022-12-29T12:44:27;99999.00;;;9.52;72.65
76726;BME280;65651;53.154;17.916;2022-12-29T12:47:34;99993.02;;;9.53;72.55
76726;BME280;65651;53.154;17.916;2022-12-29T12:50:18;99988.77;;;9.56;72.48
76726;BME280;65651;53.154;17.916;2022-12-29T12:59:11;99985.52;;;9.81;72.02
76726;BME280;65651;53.154;17.916;2022-12-29T13:07:43;99966.86;;;9.93;71.91
76726;BME280;65651;53.154;17.916;2022-12-29T13:13:14;99972.98;;;9.88;71.83
76726;BME280;65651;53.154;17.916;2022-12-29T13:21:26;99979.88;;;9.77;72.05
76726;BME280;65651;53.154;17.916;2022-12-29T13:24:06;99983.28;;;9.72;71.97
76726;BME280;65651;53.154;17.916;2022-12-29T13:34:49;99997.40;;;9.58;71.61
76726;BME280;65651;53.154;17.916;2022-12-29T13:37:23;99996.21;;;9.53;72.06
76726;BME280;65651;53.154;17.916;2022-12-29T13:39:57;99992.38;;;9.49;71.95
76726;BME280;65651;53.154;17.916;2022-12-29T13:42:26;99992.72;;;9.45;72.25
76726;BME280;65651;53.154;17.916;2022-12-29T13:45:06;99993.19;;;9.41;72.35
76726;BME280;65651;53.154;17.916;2022-12-29T13:47:41;99997.05;;;9.34;72.25
76726;BME280;65651;53.154;17.916;2022-12-29T13:50:22;99998.83;;;9.31;72.36
76726;BME280;65651;53.154;17.916;2022-12-29T13:56:31;100004.25;;;9.20;72.57
76726;BME280;65651;53.154;17.916;2022-12-29T14:01:56;100004.92;;;9.09;72.74
76726;BME280;65651;53.154;17.916;2022-12-29T14:04:29;100009.23;;;9.02;72.90
76726;BME280;65651;53.154;17.916;2022-12-29T14:07:03;100010.91;;;8.96;73.01
76726;BME280;65651;53.154;17.916;2022-12-29T14:12:01;100015.28;;;8.82;73.07
76726;BME280;65651;53.154;17.916;2022-12-29T14:14:30;100016.42;;;8.76;73.23
76726;BME280;65651;53.154;17.916;2022-12-29T14:17:10;100018.51;;;8.69;73.29
76726;BME280;65651;53.154;17.916;2022-12-29T14:19:43;100017.48;;;8.59;73.53
76726;BME280;65651;53.154;17.916;2022-12-29T14:22:12;100012.71;;;8.52;73.42
76726;BME280;65651;53.154;17.916;2022-12-29T14:24:41;100014.17;;;8.44;73.68
76726;BME280;65651;53.154;17.916;2022-12-29T14:34:58;100020.94;;;8.21;74.13
76726;BME280;65651;53.154;17.916;2022-12-29T14:42:42;100023.80;;;8.14;74.32
76726;BME280;65651;53.154;17.916;2022-12-29T14:47:44;100020.79;;;8.13;74.62
76726;BME280;65651;53.154;17.916;2022-12-29T14:50:24;100016.64;;;8.14;74.61
76726;BME280;65651;53.154;17.916;2022-12-29T14:58:27;100013.98;;;8.19;74.60
76726;BME280;65651;53.154;17.916;2022-12-29T15:00:56;100015.13;;;8.20;74.82
76726;BME280;65651;53.154;17.916;2022-12-29T15:03:42;100016.11;;;8.21;74.85
76726;BME280;65651;53.154;17.916;2022-12-29T15:06:13;100016.83;;;8.23;74.85
76726;BME280;65651;53.154;17.916;2022-12-29T15:08:58;100011.00;;;8.24;74.76
76726;BME280;65651;53.154;17.916;2022-12-29T15:17:30;100010.51;;;8.33;74.74
76726;BME280;65651;53.154;17.916;2022-12-29T15:20:14;100007.80;;;8.36;74.97
76726;BME280;65651;53.154;17.916;2022-12-29T15:22:49;100004.27;;;8.37;75.17
76726;BME280;65651;53.154;17.916;2022-12-29T15:25:17;100006.99;;;8.39;74.97
76726;BME280;65651;53.154;17.916;2022-12-29T15:27:55;100005.59;;;8.40;74.96
76726;BME280;65651;53.154;17.916;2022-12-29T15:30:24;100004.52;;;8.40;74.87
76726;BME280;65651;53.154;17.916;2022-12-29T15:32:51;99998.31;;;8.43;74.96
76726;BME280;65651;53.154;17.916;2022-12-29T15:37:57;99998.20;;;8.55;74.55
76726;BME280;65651;53.154;17.916;2022-12-29T15:40:28;100000.70;;;8.61;74.52
76726;BME280;65651;53.154;17.916;2022-12-29T15:43:09;100000.25;;;8.66;74.39
76726;BME280;65651;53.154;17.916;2022-12-29T15:45:40;100006.11;;;8.68;74.45
76726;BME280;65651;53.154;17.916;2022-12-29T15:48:15;100007.25;;;8.67;74.46
76726;BME280;65651;53.154;17.916;2022-12-29T15:50:45;100002.59;;;8.68;74.51